sensor_id;sensor_type;location;lat;lon;timestamp;P1;durP1;ratioP1;P2;durP2;ratioP2
64060;SDS011;60147;55.036;73.242;2023-02-27T00:02:23;14.45;;;6.53;;
64060;SDS011;60147;55.036;73.242;2023-02-27T00:04:50;13.05;;;5.93;;
64060;SDS011;60147;55.036;73.242;2023-02-27T00:07:16;14.85;;;6.20;;
64060;SDS011;60147;55.036;73.242;2023-02-27T00:09:47;12.60;;;5.15;;
64060;SDS011;60147;55.036;73.242;2023-02-27T00:12:23;13.30;;;6.10;;
64060;SDS011;60147;55.036;73.242;2023-02-27T00:14:49;14.05;;;6.30;;
64060;SDS011;60147;55.036;73.242;2023-02-27T00:17:16;16.15;;;6.10;;
64060;SDS011;60147;55.036;73.242;2023-02-27T00:19:52;15.70;;;6.65;;
64060;SDS011;60147;55.036;73.242;2023-02-27T00:22:17;13.45;;;5.65;;
64060;SDS011;60147;55.036;73.242;2023-02-27T00:24:43;10.27;;;5.32;;
64060;SDS011;60147;55.036;73.242;2023-02-27T00:27:09;8.65;;;5.60;;
64060;SDS011;60147;55.036;73.242;2023-02-27T00:29:36;14.50;;;6.03;;
64060;SDS011;60147;55.036;73.242;2023-02-27T00:32:02;14.07;;;5.80;;
64060;SDS011;60147;55.036;73.242;2023-02-27T00:34:28;13.25;;;6.28;;
64060;SDS011;60147;55.036;73.242;2023-02-27T00:36:54;13.77;;;6.13;;
64060;SDS011;60147;55.036;73.242;2023-02-27T00:39:23;8.85;;;4.10;;
64060;SDS011;60147;55.036;73.242;2023-02-27T00:41:58;10.48;;;5.63;;
64060;SDS011;60147;55.036;73.242;2023-02-27T00:44:24;11.57;;;5.78;;
64060;SDS011;60147;55.036;73.242;2023-02-27T00:46:50;14.23;;;5.45;;
64060;SDS011;60147;55.036;73.242;2023-02-27T00:49:16;11.05;;;5.10;;
64060;SDS011;60147;55.036;73.242;2023-02-27T00:51:44;15.77;;;6.50;;
64060;SDS011;60147;55.036;73.242;2023-02-27T00:54:10;14.23;;;6.82;;
64060;SDS011;60147;55.036;73.242;2023-02-27T00:56:36;14.88;;;6.18;;
64060;SDS011;60147;55.036;73.242;2023-02-27T00:59:12;13.90;;;5.80;;
64060;SDS011;60147;55.036;73.242;2023-02-27T01:01:38;9.75;;;4.93;;
64060;SDS011;60147;55.036;73.242;2023-02-27T01:04:10;12.80;;;5.38;;
64060;SDS011;60147;55.036;73.242;2023-02-27T01:06:40;13.63;;;4.85;;
64060;SDS011;60147;55.036;73.242;2023-02-27T01:09:07;13.05;;;5.55;;
64060;SDS011;60147;55.036;73.242;2023-02-27T01:11:43;14.13;;;6.03;;
64060;SDS011;60147;55.036;73.242;2023-02-27T01:14:09;6.68;;;4.07;;
64060;SDS011;60147;55.036;73.242;2023-02-27T01:16:35;10.93;;;5.55;;
64060;SDS011;60147;55.036;73.242;2023-02-27T01:19:01;17.75;;;6.72;;
64060;SDS011;60147;55.036;73.242;2023-02-27T01:21:27;13.15;;;5.90;;
64060;SDS011;60147;55.036;73.242;2023-02-27T01:23:53;14.50;;;6.25;;
64060;SDS011;60147;55.036;73.242;2023-02-27T01:26:18;10.77;;;5.13;;
64060;SDS011;60147;55.036;73.242;2023-02-27T01:28:54;11.18;;;5.25;;
64060;SDS011;60147;55.036;73.242;2023-02-27T01:31:20;8.75;;;4.65;;
64060;SDS011;60147;55.036;73.242;2023-02-27T01:33:51;13.75;;;5.60;;
64060;SDS011;60147;55.036;73.242;2023-02-27T01:36:17;9.77;;;4.25;;
64060;SDS011;60147;55.036;73.242;2023-02-27T01:38:43;11.48;;;5.75;;
64060;SDS011;60147;55.036;73.242;2023-02-27T01:41:09;12.68;;;5.95;;
64060;SDS011;60147;55.036;73.242;2023-02-27T01:43:51;10.55;;;5.03;;
64060;SDS011;60147;55.036;73.242;2023-02-27T01:46:28;16.08;;;5.90;;
64060;SDS011;60147;55.036;73.242;2023-02-27T01:48:56;12.57;;;5.68;;
64060;SDS011;60147;55.036;73.242;2023-02-27T01:51:24;12.00;;;4.95;;
64060;SDS011;60147;55.036;73.242;2023-02-27T01:54:00;9.85;;;4.63;;
64060;SDS011;60147;55.036;73.242;2023-02-27T01:56:38;12.75;;;4.82;;
64060;SDS011;60147;55.036;73.242;2023-02-27T01:59:06;11.05;;;5.28;;
64060;SDS011;60147;55.036;73.242;2023-02-27T02:01:33;9.75;;;5.28;;
64060;SDS011;60147;55.036;73.242;2023-02-27T02:04:11;11.05;;;5.85;;
64060;SDS011;60147;55.036;73.242;2023-02-27T02:06:39;13.10;;;5.82;;
64060;SDS011;60147;55.036;73.242;2023-02-27T02:09:15;16.98;;;6.57;;
64060;SDS011;60147;55.036;73.242;2023-02-27T02:11:51;15.73;;;6.78;;
64060;SDS011;60147;55.036;73.242;2023-02-27T02:14:28;13.45;;;6.40;;
64060;SDS011;60147;55.036;73.242;2023-02-27T02:17:01;10.45;;;4.35;;
64060;SDS011;60147;55.036;73.242;2023-02-27T02:52:14;11.55;;;5.95;;
64060;SDS011;60147;55.036;73.242;2023-02-27T02:55:17;14.23;;;6.65;;
64060;SDS011;60147;55.036;73.242;2023-02-27T03:02:41;12.25;;;5.93;;
64060;SDS011;60147;55.036;73.242;2023-02-27T03:05:16;14.77;;;7.20;;
64060;SDS011;60147;55.036;73.242;2023-02-27T03:08:02;9.15;;;4.90;;
64060;SDS011;60147;55.036;73.242;2023-02-27T03:10:36;13.18;;;6.40;;
64060;SDS011;60147;55.036;73.242;2023-02-27T03:13:16;10.45;;;4.63;;
64060;SDS011;60147;55.036;73.242;2023-02-27T03:15:45;12.63;;;5.75;;
64060;SDS011;60147;55.036;73.242;2023-02-27T03:18:16;12.82;;;5.75;;
64060;SDS011;60147;55.036;73.242;2023-02-27T03:20:53;7.90;;;4.68;;
64060;SDS011;60147;55.036;73.242;2023-02-27T03:23:33;13.88;;;5.47;;
64060;SDS011;60147;55.036;73.242;2023-02-27T03:26:04;10.90;;;5.80;;
64060;SDS011;60147;55.036;73.242;2023-02-27T03:28:36;11.30;;;6.15;;
64060;SDS011;60147;55.036;73.242;2023-02-27T03:31:10;13.50;;;5.35;;
64060;SDS011;60147;55.036;73.242;2023-02-27T03:33:39;9.65;;;4.13;;
64060;SDS011;60147;55.036;73.242;2023-02-27T03:36:09;9.18;;;4.82;;
64060;SDS011;60147;55.036;73.242;2023-02-27T03:43:44;6.63;;;3.75;;
64060;SDS011;60147;55.036;73.242;2023-02-27T03:46:17;10.27;;;5.70;;
64060;SDS011;60147;55.036;73.242;2023-02-27T03:48:45;13.48;;;6.03;;
64060;SDS011;60147;55.036;73.242;2023-02-27T03:51:15;12.30;;;4.72;;
64060;SDS011;60147;55.036;73.242;2023-02-27T03:53:45;11.77;;;4.50;;
64060;SDS011;60147;55.036;73.242;2023-02-27T03:56:19;9.02;;;4.57;;
64060;SDS011;60147;55.036;73.242;2023-02-27T03:58:47;7.85;;;3.72;;
64060;SDS011;60147;55.036;73.242;2023-02-27T04:01:23;11.95;;;5.97;;
64060;SDS011;60147;55.036;73.242;2023-02-27T04:03:56;13.80;;;6.72;;
64060;SDS011;60147;55.036;73.242;2023-02-27T04:06:55;12.63;;;5.63;;
64060;SDS011;60147;55.036;73.242;2023-02-27T04:10:14;18.63;;;6.60;;
64060;SDS011;60147;55.036;73.242;2023-02-27T04:15:33;25.95;;;10.15;;
64060;SDS011;60147;55.036;73.242;2023-02-27T04:23:22;21.42;;;9.68;;
64060;SDS011;60147;55.036;73.242;2023-02-27T04:25:56;19.30;;;7.85;;
64060;SDS011;60147;55.036;73.242;2023-02-27T04:28:34;14.43;;;6.72;;
64060;SDS011;60147;55.036;73.242;2023-02-27T04:31:17;13.52;;;6.88;;
64060;SDS011;60147;55.036;73.242;2023-02-27T04:33:58;15.43;;;7.13;;
64060;SDS011;60147;55.036;73.242;2023-02-27T04:36:31;13.75;;;6.75;;
64060;SDS011;60147;55.036;73.242;2023-02-27T04:44:08;10.23;;;4.75;;
64060;SDS011;60147;55.036;73.242;2023-02-27T04:46:36;11.20;;;5.13;;
64060;SDS011;60147;55.036;73.242;2023-02-27T04:49:12;12.45;;;5.32;;
64060;SDS011;60147;55.036;73.242;2023-02-27T04:51:47;13.95;;;6.03;;
64060;SDS011;60147;55.036;73.242;2023-02-27T04:54:28;9.95;;;5.45;;
64060;SDS011;60147;55.036;73.242;2023-02-27T04:56:56;14.55;;;6.45;;
64060;SDS011;60147;55.036;73.242;2023-02-27T04:59:38;14.93;;;6.50;;
64060;SDS011;60147;55.036;73.242;2023-02-27T05:02:07;12.57;;;6.00;;
64060;SDS011;60147;55.036;73.242;2023-02-27T05:04:37;10.77;;;5.40;;
64060;SDS011;60147;55.036;73.242;2023-02-27T05:07:05;10.45;;;5.22;;
64060;SDS011;60147;55.036;73.242;2023-02-27T05:09:41;12.38;;;5.38;;
64060;SDS011;60147;55.036;73.242;2023-02-27T05:12:14;11.43;;;6.03;;
64060;SDS011;60147;55.036;73.242;2023-02-27T05:14:46;12.88;;;6.78;;
64060;SDS011;60147;55.036;73.242;2023-02-27T05:17:14;18.42;;;6.78;;
64060;SDS011;60147;55.036;73.242;2023-02-27T05:19:47;15.55;;;5.85;;
64060;SDS011;60147;55.036;73.242;2023-02-27T05:25:27;16.38;;;6.82;;
64060;SDS011;60147;55.036;73.242;2023-02-27T05:27:53;14.50;;;6.40;;
64060;SDS011;60147;55.036;73.242;2023-02-27T05:30:55;17.80;;;7.10;;
64060;SDS011;60147;55.036;73.242;2023-02-27T05:33:32;17.33;;;7.13;;
64060;SDS011;60147;55.036;73.242;2023-02-27T05:36:07;13.30;;;5.95;;
64060;SDS011;60147;55.036;73.242;2023-02-27T05:38:37;16.77;;;7.25;;
64060;SDS011;60147;55.036;73.242;2023-02-27T05:44:00;13.52;;;5.80;;
64060;SDS011;60147;55.036;73.242;2023-02-27T05:46:34;13.98;;;6.18;;
64060;SDS011;60147;55.036;73.242;2023-02-27T05:49:04;11.95;;;6.30;;
64060;SDS011;60147;55.036;73.242;2023-02-27T05:51:32;11.60;;;5.70;;
64060;SDS011;60147;55.036;73.242;2023-02-27T05:54:12;9.30;;;4.28;;
64060;SDS011;60147;55.036;73.242;2023-02-27T05:56:41;15.70;;;6.45;;
64060;SDS011;60147;55.036;73.242;2023-02-27T05:59:10;7.93;;;4.35;;
64060;SDS011;60147;55.036;73.242;2023-02-27T06:01:39;9.80;;;5.03;;
64060;SDS011;60147;55.036;73.242;2023-02-27T06:04:08;10.05;;;5.15;;
64060;SDS011;60147;55.036;73.242;2023-02-27T06:06:34;8.40;;;3.97;;
64060;SDS011;60147;55.036;73.242;2023-02-27T06:09:01;12.25;;;5.82;;
64060;SDS011;60147;55.036;73.242;2023-02-27T06:11:27;16.38;;;8.30;;
64060;SDS011;60147;55.036;73.242;2023-02-27T06:13:57;15.90;;;8.20;;
64060;SDS011;60147;55.036;73.242;2023-02-27T06:16:31;13.73;;;6.85;;
64060;SDS011;60147;55.036;73.242;2023-02-27T06:19:07;10.55;;;6.15;;
64060;SDS011;60147;55.036;73.242;2023-02-27T06:21:38;15.45;;;7.72;;
64060;SDS011;60147;55.036;73.242;2023-02-27T06:24:22;12.73;;;5.53;;
64060;SDS011;60147;55.036;73.242;2023-02-27T06:26:49;13.75;;;6.13;;
64060;SDS011;60147;55.036;73.242;2023-02-27T06:29:15;11.60;;;6.20;;
64060;SDS011;60147;55.036;73.242;2023-02-27T06:31:51;12.45;;;4.93;;
64060;SDS011;60147;55.036;73.242;2023-02-27T06:34:17;12.10;;;6.20;;
64060;SDS011;60147;55.036;73.242;2023-02-27T06:36:43;10.18;;;4.57;;
64060;SDS011;60147;55.036;73.242;2023-02-27T06:39:11;6.55;;;3.58;;
64060;SDS011;60147;55.036;73.242;2023-02-27T06:41:37;8.50;;;5.03;;
64060;SDS011;60147;55.036;73.242;2023-02-27T06:44:03;6.72;;;3.75;;
64060;SDS011;60147;55.036;73.242;2023-02-27T06:46:39;10.43;;;4.63;;
64060;SDS011;60147;55.036;73.242;2023-02-27T06:49:05;10.82;;;5.18;;
64060;SDS011;60147;55.036;73.242;2023-02-27T06:51:41;7.28;;;3.20;;
64060;SDS011;60147;55.036;73.242;2023-02-27T06:54:17;10.57;;;5.35;;
64060;SDS011;60147;55.036;73.242;2023-02-27T06:56:43;10.50;;;5.20;;
64060;SDS011;60147;55.036;73.242;2023-02-27T06:59:15;10.73;;;5.20;;
64060;SDS011;60147;55.036;73.242;2023-02-27T07:01:40;13.95;;;6.30;;
64060;SDS011;60147;55.036;73.242;2023-02-27T07:04:16;11.75;;;5.20;;
64060;SDS011;60147;55.036;73.242;2023-02-27T07:06:52;12.30;;;5.05;;
64060;SDS011;60147;55.036;73.242;2023-02-27T07:09:19;10.02;;;5.00;;
64060;SDS011;60147;55.036;73.242;2023-02-27T07:11:54;10.88;;;5.72;;
64060;SDS011;60147;55.036;73.242;2023-02-27T07:14:24;10.75;;;5.88;;
64060;SDS011;60147;55.036;73.242;2023-02-27T07:17:00;10.32;;;5.40;;
64060;SDS011;60147;55.036;73.242;2023-02-27T07:19:29;12.80;;;7.03;;
64060;SDS011;60147;55.036;73.242;2023-02-27T07:22:05;17.92;;;7.43;;
64060;SDS011;60147;55.036;73.242;2023-02-27T07:24:34;16.73;;;7.07;;
64060;SDS011;60147;55.036;73.242;2023-02-27T07:26:59;11.02;;;4.93;;
64060;SDS011;60147;55.036;73.242;2023-02-27T07:29:30;14.25;;;6.35;;
64060;SDS011;60147;55.036;73.242;2023-02-27T07:31:56;13.95;;;5.28;;
64060;SDS011;60147;55.036;73.242;2023-02-27T07:34:22;8.45;;;4.43;;
64060;SDS011;60147;55.036;73.242;2023-02-27T07:36:48;8.52;;;5.20;;
64060;SDS011;60147;55.036;73.242;2023-02-27T07:39:14;10.65;;;4.72;;
64060;SDS011;60147;55.036;73.242;2023-02-27T07:41:44;11.13;;;5.43;;
64060;SDS011;60147;55.036;73.242;2023-02-27T07:44:25;8.68;;;4.18;;
64060;SDS011;60147;55.036;73.242;2023-02-27T07:46:51;18.88;;;5.47;;
64060;SDS011;60147;55.036;73.242;2023-02-27T07:49:17;9.82;;;4.13;;
64060;SDS011;60147;55.036;73.242;2023-02-27T07:51:43;11.95;;;4.72;;
64060;SDS011;60147;55.036;73.242;2023-02-27T07:54:09;7.97;;;4.38;;
64060;SDS011;60147;55.036;73.242;2023-02-27T07:56:40;9.70;;;4.43;;
64060;SDS011;60147;55.036;73.242;2023-02-27T07:59:06;13.63;;;5.25;;
64060;SDS011;60147;55.036;73.242;2023-02-27T08:01:36;11.25;;;4.10;;
64060;SDS011;60147;55.036;73.242;2023-02-27T08:04:02;12.32;;;4.32;;
64060;SDS011;60147;55.036;73.242;2023-02-27T08:06:28;6.90;;;3.47;;
64060;SDS011;60147;55.036;73.242;2023-02-27T08:08:58;7.85;;;4.40;;
64060;SDS011;60147;55.036;73.242;2023-02-27T08:11:24;6.68;;;3.78;;
64060;SDS011;60147;55.036;73.242;2023-02-27T08:13:53;6.60;;;2.55;;
64060;SDS011;60147;55.036;73.242;2023-02-27T08:16:19;4.80;;;2.10;;
64060;SDS011;60147;55.036;73.242;2023-02-27T08:18:46;7.60;;;4.03;;
64060;SDS011;60147;55.036;73.242;2023-02-27T08:21:12;6.47;;;3.88;;
64060;SDS011;60147;55.036;73.242;2023-02-27T08:23:47;7.80;;;4.10;;
64060;SDS011;60147;55.036;73.242;2023-02-27T08:26:18;7.70;;;4.38;;
64060;SDS011;60147;55.036;73.242;2023-02-27T08:28:44;7.20;;;3.55;;
64060;SDS011;60147;55.036;73.242;2023-02-27T08:31:10;6.20;;;3.33;;
64060;SDS011;60147;55.036;73.242;2023-02-27T08:33:36;7.20;;;2.95;;
64060;SDS011;60147;55.036;73.242;2023-02-27T08:36:02;8.90;;;4.05;;
64060;SDS011;60147;55.036;73.242;2023-02-27T08:38:28;7.43;;;3.50;;
64060;SDS011;60147;55.036;73.242;2023-02-27T08:40:54;8.82;;;4.65;;
64060;SDS011;60147;55.036;73.242;2023-02-27T08:43:24;13.67;;;4.20;;
64060;SDS011;60147;55.036;73.242;2023-02-27T08:45:51;9.00;;;3.20;;
64060;SDS011;60147;55.036;73.242;2023-02-27T08:48:17;5.68;;;2.70;;
64060;SDS011;60147;55.036;73.242;2023-02-27T08:50:43;4.85;;;2.58;;
64060;SDS011;60147;55.036;73.242;2023-02-27T08:53:19;6.45;;;3.42;;
64060;SDS011;60147;55.036;73.242;2023-02-27T08:55:49;6.30;;;3.20;;
64060;SDS011;60147;55.036;73.242;2023-02-27T08:58:36;9.40;;;4.18;;
64060;SDS011;60147;55.036;73.242;2023-02-27T09:01:02;6.85;;;3.13;;
64060;SDS011;60147;55.036;73.242;2023-02-27T09:03:28;6.70;;;3.33;;
64060;SDS011;60147;55.036;73.242;2023-02-27T09:05:54;7.88;;;3.22;;
64060;SDS011;60147;55.036;73.242;2023-02-27T09:08:21;8.00;;;2.47;;
64060;SDS011;60147;55.036;73.242;2023-02-27T09:10:56;9.05;;;3.40;;
64060;SDS011;60147;55.036;73.242;2023-02-27T09:13:31;10.18;;;3.58;;
64060;SDS011;60147;55.036;73.242;2023-02-27T09:15:57;6.53;;;2.97;;
64060;SDS011;60147;55.036;73.242;2023-02-27T09:18:33;7.63;;;3.83;;
64060;SDS011;60147;55.036;73.242;2023-02-27T09:20:59;7.70;;;3.25;;
64060;SDS011;60147;55.036;73.242;2023-02-27T09:23:25;6.22;;;3.40;;
64060;SDS011;60147;55.036;73.242;2023-02-27T09:25:54;6.45;;;2.97;;
64060;SDS011;60147;55.036;73.242;2023-02-27T09:28:20;6.82;;;3.55;;
64060;SDS011;60147;55.036;73.242;2023-02-27T09:30:46;7.13;;;3.30;;
64060;SDS011;60147;55.036;73.242;2023-02-27T09:33:12;7.30;;;3.33;;
64060;SDS011;60147;55.036;73.242;2023-02-27T09:35:39;6.55;;;2.97;;
64060;SDS011;60147;55.036;73.242;2023-02-27T09:38:05;6.43;;;3.25;;
64060;SDS011;60147;55.036;73.242;2023-02-27T09:40:32;5.20;;;2.83;;
64060;SDS011;60147;55.036;73.242;2023-02-27T09:43:42;6.53;;;3.55;;
64060;SDS011;60147;55.036;73.242;2023-02-27T09:46:00;5.10;;;2.25;;
64060;SDS011;60147;55.036;73.242;2023-02-27T09:48:28;5.05;;;3.33;;
64060;SDS011;60147;55.036;73.242;2023-02-27T09:50:55;5.55;;;3.05;;
64060;SDS011;60147;55.036;73.242;2023-02-27T09:53:38;7.32;;;3.08;;
64060;SDS011;60147;55.036;73.242;2023-02-27T09:56:12;7.35;;;3.25;;
64060;SDS011;60147;55.036;73.242;2023-02-27T09:58:44;7.47;;;2.90;;
64060;SDS011;60147;55.036;73.242;2023-02-27T10:01:40;7.07;;;3.50;;
64060;SDS011;60147;55.036;73.242;2023-02-27T10:04:15;7.68;;;3.17;;
64060;SDS011;60147;55.036;73.242;2023-02-27T10:06:47;6.50;;;3.65;;
64060;SDS011;60147;55.036;73.242;2023-02-27T10:09:20;6.00;;;2.58;;
64060;SDS011;60147;55.036;73.242;2023-02-27T10:12:02;4.13;;;2.15;;
64060;SDS011;60147;55.036;73.242;2023-02-27T10:17:05;6.88;;;3.38;;
64060;SDS011;60147;55.036;73.242;2023-02-27T10:19:34;4.28;;;2.58;;
64060;SDS011;60147;55.036;73.242;2023-02-27T10:22:02;6.38;;;2.90;;
64060;SDS011;60147;55.036;73.242;2023-02-27T10:24:38;5.22;;;3.25;;
64060;SDS011;60147;55.036;73.242;2023-02-27T10:27:13;5.93;;;3.10;;
64060;SDS011;60147;55.036;73.242;2023-02-27T10:29:40;8.73;;;3.45;;
64060;SDS011;60147;55.036;73.242;2023-02-27T10:34:46;6.10;;;2.05;;
64060;SDS011;60147;55.036;73.242;2023-02-27T10:37:17;6.97;;;2.92;;
64060;SDS011;60147;55.036;73.242;2023-02-27T10:39:52;8.43;;;3.35;;
64060;SDS011;60147;55.036;73.242;2023-02-27T10:42:31;5.80;;;3.47;;
64060;SDS011;60147;55.036;73.242;2023-02-27T10:44:58;7.43;;;3.63;;
64060;SDS011;60147;55.036;73.242;2023-02-27T10:47:28;19.70;;;7.40;;
64060;SDS011;60147;55.036;73.242;2023-02-27T10:49:55;6.82;;;3.30;;
64060;SDS011;60147;55.036;73.242;2023-02-27T10:52:37;12.27;;;6.72;;
64060;SDS011;60147;55.036;73.242;2023-02-27T10:55:15;15.02;;;7.10;;
64060;SDS011;60147;55.036;73.242;2023-02-27T10:57:47;7.65;;;3.70;;
64060;SDS011;60147;55.036;73.242;2023-02-27T11:00:26;14.55;;;8.95;;
64060;SDS011;60147;55.036;73.242;2023-02-27T11:02:55;10.35;;;4.50;;
64060;SDS011;60147;55.036;73.242;2023-02-27T11:05:27;4.75;;;2.45;;
64060;SDS011;60147;55.036;73.242;2023-02-27T11:10:52;7.50;;;4.63;;
64060;SDS011;60147;55.036;73.242;2023-02-27T11:13:19;11.27;;;4.68;;
64060;SDS011;60147;55.036;73.242;2023-02-27T11:15:46;16.17;;;5.32;;
64060;SDS011;60147;55.036;73.242;2023-02-27T11:18:36;8.55;;;4.47;;
64060;SDS011;60147;55.036;73.242;2023-02-27T11:21:18;10.10;;;4.60;;
64060;SDS011;60147;55.036;73.242;2023-02-27T11:23:53;9.05;;;3.95;;
64060;SDS011;60147;55.036;73.242;2023-02-27T11:26:52;4.32;;;2.35;;
64060;SDS011;60147;55.036;73.242;2023-02-27T11:31:43;9.07;;;3.92;;
64060;SDS011;60147;55.036;73.242;2023-02-27T11:34:20;5.80;;;2.88;;
64060;SDS011;60147;55.036;73.242;2023-02-27T11:36:47;4.50;;;3.03;;
64060;SDS011;60147;55.036;73.242;2023-02-27T11:41:53;8.63;;;4.20;;
64060;SDS011;60147;55.036;73.242;2023-02-27T11:44:28;6.22;;;3.58;;
64060;SDS011;60147;55.036;73.242;2023-02-27T11:47:12;15.15;;;4.35;;
64060;SDS011;60147;55.036;73.242;2023-02-27T11:49:56;7.03;;;4.28;;
64060;SDS011;60147;55.036;73.242;2023-02-27T11:52:36;19.73;;;4.72;;
64060;SDS011;60147;55.036;73.242;2023-02-27T11:55:05;8.18;;;4.22;;
64060;SDS011;60147;55.036;73.242;2023-02-27T11:57:35;9.93;;;4.00;;
64060;SDS011;60147;55.036;73.242;2023-02-27T12:10:23;9.48;;;3.75;;
64060;SDS011;60147;55.036;73.242;2023-02-27T12:12:52;7.40;;;4.30;;
64060;SDS011;60147;55.036;73.242;2023-02-27T12:18:04;7.97;;;4.00;;
64060;SDS011;60147;55.036;73.242;2023-02-27T12:20:53;11.25;;;4.57;;
64060;SDS011;60147;55.036;73.242;2023-02-27T12:29:08;11.48;;;4.38;;
64060;SDS011;60147;55.036;73.242;2023-02-27T12:31:40;12.95;;;5.20;;
64060;SDS011;60147;55.036;73.242;2023-02-27T12:34:27;12.82;;;4.80;;
64060;SDS011;60147;55.036;73.242;2023-02-27T12:36:57;10.57;;;4.68;;
64060;SDS011;60147;55.036;73.242;2023-02-27T12:39:25;11.50;;;4.22;;
64060;SDS011;60147;55.036;73.242;2023-02-27T12:54:52;7.82;;;3.63;;
64060;SDS011;60147;55.036;73.242;2023-02-27T13:13:21;11.43;;;5.65;;
64060;SDS011;60147;55.036;73.242;2023-02-27T13:18:36;12.23;;;4.82;;
64060;SDS011;60147;55.036;73.242;2023-02-27T13:23:51;12.45;;;5.85;;
64060;SDS011;60147;55.036;73.242;2023-02-27T13:26:35;9.10;;;4.50;;
64060;SDS011;60147;55.036;73.242;2023-02-27T13:29:04;9.05;;;4.35;;
64060;SDS011;60147;55.036;73.242;2023-02-27T13:31:41;9.35;;;5.25;;
64060;SDS011;60147;55.036;73.242;2023-02-27T13:34:23;8.27;;;4.20;;
64060;SDS011;60147;55.036;73.242;2023-02-27T13:37:03;11.50;;;4.20;;
64060;SDS011;60147;55.036;73.242;2023-02-27T13:39:37;10.18;;;4.70;;
64060;SDS011;60147;55.036;73.242;2023-02-27T13:45:02;10.95;;;4.47;;
64060;SDS011;60147;55.036;73.242;2023-02-27T13:49:58;13.90;;;4.47;;
64060;SDS011;60147;55.036;73.242;2023-02-27T13:52:33;13.93;;;5.45;;
64060;SDS011;60147;55.036;73.242;2023-02-27T13:55:26;14.93;;;5.15;;
64060;SDS011;60147;55.036;73.242;2023-02-27T13:57:56;13.23;;;4.50;;
64060;SDS011;60147;55.036;73.242;2023-02-27T14:00:24;11.80;;;4.80;;
64060;SDS011;60147;55.036;73.242;2023-02-27T14:03:05;8.10;;;3.83;;
64060;SDS011;60147;55.036;73.242;2023-02-27T14:05:41;8.43;;;3.55;;
64060;SDS011;60147;55.036;73.242;2023-02-27T14:08:26;9.55;;;4.68;;
64060;SDS011;60147;55.036;73.242;2023-02-27T14:16:12;29.58;;;9.75;;
64060;SDS011;60147;55.036;73.242;2023-02-27T14:19:01;16.30;;;6.95;;
64060;SDS011;60147;55.036;73.242;2023-02-27T14:24:12;15.30;;;5.13;;
64060;SDS011;60147;55.036;73.242;2023-02-27T14:26:40;16.88;;;5.57;;
64060;SDS011;60147;55.036;73.242;2023-02-27T14:29:11;17.20;;;5.35;;
64060;SDS011;60147;55.036;73.242;2023-02-27T14:31:38;11.10;;;4.00;;
64060;SDS011;60147;55.036;73.242;2023-02-27T14:34:06;12.48;;;5.72;;
64060;SDS011;60147;55.036;73.242;2023-02-27T14:36:44;11.23;;;5.05;;
64060;SDS011;60147;55.036;73.242;2023-02-27T14:39:21;13.00;;;5.00;;
64060;SDS011;60147;55.036;73.242;2023-02-27T14:44:24;10.80;;;4.60;;
64060;SDS011;60147;55.036;73.242;2023-02-27T14:46:51;8.10;;;4.05;;
64060;SDS011;60147;55.036;73.242;2023-02-27T14:49:33;11.65;;;4.18;;
64060;SDS011;60147;55.036;73.242;2023-02-27T14:52:20;8.35;;;3.50;;
64060;SDS011;60147;55.036;73.242;2023-02-27T14:54:50;10.88;;;4.55;;
64060;SDS011;60147;55.036;73.242;2023-02-27T14:57:22;11.38;;;4.38;;
64060;SDS011;60147;55.036;73.242;2023-02-27T14:59:49;14.77;;;4.65;;
64060;SDS011;60147;55.036;73.242;2023-02-27T15:02:26;8.48;;;4.55;;
64060;SDS011;60147;55.036;73.242;2023-02-27T15:07:36;9.75;;;4.00;;
64060;SDS011;60147;55.036;73.242;2023-02-27T15:10:05;7.93;;;4.25;;
64060;SDS011;60147;55.036;73.242;2023-02-27T15:12:36;9.13;;;4.55;;
64060;SDS011;60147;55.036;73.242;2023-02-27T15:15:03;5.87;;;3.00;;
64060;SDS011;60147;55.036;73.242;2023-02-27T15:17:41;7.65;;;3.80;;
64060;SDS011;60147;55.036;73.242;2023-02-27T15:22:46;12.77;;;4.53;;
64060;SDS011;60147;55.036;73.242;2023-02-27T15:25:29;11.18;;;4.68;;
64060;SDS011;60147;55.036;73.242;2023-02-27T15:27:56;11.80;;;4.90;;
64060;SDS011;60147;55.036;73.242;2023-02-27T15:30:29;8.57;;;3.85;;
64060;SDS011;60147;55.036;73.242;2023-02-27T15:32:55;7.05;;;4.07;;
64060;SDS011;60147;55.036;73.242;2023-02-27T15:35:34;7.07;;;3.35;;
64060;SDS011;60147;55.036;73.242;2023-02-27T15:38:00;6.80;;;3.17;;
64060;SDS011;60147;55.036;73.242;2023-02-27T15:40:28;9.27;;;3.50;;
64060;SDS011;60147;55.036;73.242;2023-02-27T15:42:55;8.73;;;3.95;;
64060;SDS011;60147;55.036;73.242;2023-02-27T15:45:34;9.15;;;3.95;;
64060;SDS011;60147;55.036;73.242;2023-02-27T15:48:13;12.10;;;4.50;;
64060;SDS011;60147;55.036;73.242;2023-02-27T15:50:52;8.30;;;4.20;;
64060;SDS011;60147;55.036;73.242;2023-02-27T15:53:19;9.65;;;3.78;;
64060;SDS011;60147;55.036;73.242;2023-02-27T15:55:48;10.48;;;4.15;;
64060;SDS011;60147;55.036;73.242;2023-02-27T15:58:20;10.43;;;4.50;;
64060;SDS011;60147;55.036;73.242;2023-02-27T16:01:04;10.90;;;4.28;;
64060;SDS011;60147;55.036;73.242;2023-02-27T16:03:38;5.90;;;3.60;;
64060;SDS011;60147;55.036;73.242;2023-02-27T16:06:10;9.13;;;4.00;;
64060;SDS011;60147;55.036;73.242;2023-02-27T16:08:38;8.55;;;3.83;;
64060;SDS011;60147;55.036;73.242;2023-02-27T16:11:16;11.68;;;4.32;;
64060;SDS011;60147;55.036;73.242;2023-02-27T16:13:42;11.15;;;3.90;;
64060;SDS011;60147;55.036;73.242;2023-02-27T16:18:45;8.60;;;3.97;;
64060;SDS011;60147;55.036;73.242;2023-02-27T16:21:16;10.25;;;4.30;;
64060;SDS011;60147;55.036;73.242;2023-02-27T16:23:42;7.95;;;3.40;;
64060;SDS011;60147;55.036;73.242;2023-02-27T16:28:43;8.20;;;3.42;;
64060;SDS011;60147;55.036;73.242;2023-02-27T16:33:55;8.88;;;3.83;;
64060;SDS011;60147;55.036;73.242;2023-02-27T16:36:22;7.30;;;3.78;;
64060;SDS011;60147;55.036;73.242;2023-02-27T16:38:49;8.27;;;3.75;;
64060;SDS011;60147;55.036;73.242;2023-02-27T16:41:25;8.63;;;3.50;;
64060;SDS011;60147;55.036;73.242;2023-02-27T16:43:52;8.40;;;3.13;;
64060;SDS011;60147;55.036;73.242;2023-02-27T16:46:23;6.88;;;3.13;;
64060;SDS011;60147;55.036;73.242;2023-02-27T16:48:51;15.30;;;3.78;;
64060;SDS011;60147;55.036;73.242;2023-02-27T16:51:19;9.57;;;4.18;;
64060;SDS011;60147;55.036;73.242;2023-02-27T16:53:53;9.77;;;3.80;;
64060;SDS011;60147;55.036;73.242;2023-02-27T16:56:20;8.32;;;3.35;;
64060;SDS011;60147;55.036;73.242;2023-02-27T16:58:48;7.68;;;3.92;;
64060;SDS011;60147;55.036;73.242;2023-02-27T17:01:19;9.02;;;4.05;;
64060;SDS011;60147;55.036;73.242;2023-02-27T17:03:46;10.85;;;4.38;;
64060;SDS011;60147;55.036;73.242;2023-02-27T17:06:12;9.50;;;4.20;;
64060;SDS011;60147;55.036;73.242;2023-02-27T17:08:43;9.20;;;3.55;;
64060;SDS011;60147;55.036;73.242;2023-02-27T17:11:14;6.35;;;2.33;;
64060;SDS011;60147;55.036;73.242;2023-02-27T17:13:40;6.38;;;3.65;;
64060;SDS011;60147;55.036;73.242;2023-02-27T17:16:06;8.40;;;3.50;;
64060;SDS011;60147;55.036;73.242;2023-02-27T17:18:32;8.60;;;4.00;;
64060;SDS011;60147;55.036;73.242;2023-02-27T17:20:59;10.02;;;4.28;;
64060;SDS011;60147;55.036;73.242;2023-02-27T17:23:25;9.70;;;4.55;;
64060;SDS011;60147;55.036;73.242;2023-02-27T17:25:51;7.22;;;4.15;;
64060;SDS011;60147;55.036;73.242;2023-02-27T17:28:17;15.45;;;4.53;;
64060;SDS011;60147;55.036;73.242;2023-02-27T17:30:43;11.68;;;4.50;;
64060;SDS011;60147;55.036;73.242;2023-02-27T17:33:09;17.42;;;5.18;;